sensor_id;sensor_type;location;lat;lon;timestamp;P1;durP1;ratioP1;P2;durP2;ratioP2
32693;SDS011;19084;44.716;10.218;2022-12-07T00:02:03;40.05;;;26.67;;
32693;SDS011;19084;44.716;10.218;2022-12-07T00:04:35;41.30;;;27.25;;
32693;SDS011;19084;44.716;10.218;2022-12-07T00:07:08;38.40;;;27.05;;
32693;SDS011;19084;44.716;10.218;2022-12-07T00:09:41;39.08;;;26.35;;
32693;SDS011;19084;44.716;10.218;2022-12-07T00:12:13;40.65;;;26.75;;
32693;SDS011;19084;44.716;10.218;2022-12-07T00:14:46;43.72;;;28.65;;
32693;SDS011;19084;44.716;10.218;2022-12-07T00:17:19;42.85;;;29.02;;
32693;SDS011;19084;44.716;10.218;2022-12-07T00:19:52;40.92;;;27.85;;
32693;SDS011;19084;44.716;10.218;2022-12-07T00:22:24;37.20;;;26.10;;
32693;SDS011;19084;44.716;10.218;2022-12-07T00:24:57;37.38;;;26.80;;
32693;SDS011;19084;44.716;10.218;2022-12-07T00:27:30;39.65;;;26.95;;
32693;SDS011;19084;44.716;10.218;2022-12-07T00:30:03;41.35;;;27.25;;
32693;SDS011;19084;44.716;10.218;2022-12-07T00:32:36;40.38;;;26.10;;
32693;SDS011;19084;44.716;10.218;2022-12-07T00:35:09;40.03;;;26.00;;
32693;SDS011;19084;44.716;10.218;2022-12-07T00:37:42;40.75;;;26.60;;
32693;SDS011;19084;44.716;10.218;2022-12-07T00:40:15;38.35;;;26.05;;
32693;SDS011;19084;44.716;10.218;2022-12-07T00:42:47;41.63;;;27.67;;
32693;SDS011;19084;44.716;10.218;2022-12-07T00:45:20;40.40;;;26.50;;
32693;SDS011;19084;44.716;10.218;2022-12-07T00:47:53;39.40;;;26.02;;
32693;SDS011;19084;44.716;10.218;2022-12-07T00:50:25;39.78;;;27.25;;
32693;SDS011;19084;44.716;10.218;2022-12-07T00:52:58;38.25;;;24.98;;
32693;SDS011;19084;44.716;10.218;2022-12-07T00:55:32;39.78;;;25.33;;
32693;SDS011;19084;44.716;10.218;2022-12-07T00:58:06;41.80;;;25.83;;
32693;SDS011;19084;44.716;10.218;2022-12-07T01:00:40;39.90;;;25.35;;
32693;SDS011;19084;44.716;10.218;2022-12-07T01:03:15;39.90;;;26.65;;
32693;SDS011;19084;44.716;10.218;2022-12-07T01:05:49;38.42;;;25.05;;
32693;SDS011;19084;44.716;10.218;2022-12-07T01:10:58;35.85;;;23.38;;
32693;SDS011;19084;44.716;10.218;2022-12-07T01:13:34;38.90;;;24.30;;
32693;SDS011;19084;44.716;10.218;2022-12-07T01:16:07;39.97;;;25.50;;
32693;SDS011;19084;44.716;10.218;2022-12-07T01:24:09;40.17;;;27.23;;
32693;SDS011;19084;44.716;10.218;2022-12-07T01:26:43;39.63;;;26.70;;
32693;SDS011;19084;44.716;10.218;2022-12-07T01:29:16;40.47;;;27.08;;
32693;SDS011;19084;44.716;10.218;2022-12-07T01:31:49;42.47;;;28.55;;
32693;SDS011;19084;44.716;10.218;2022-12-07T01:34:22;43.22;;;27.02;;
32693;SDS011;19084;44.716;10.218;2022-12-07T01:36:55;48.70;;;29.10;;
32693;SDS011;19084;44.716;10.218;2022-12-07T01:39:28;42.50;;;27.75;;
32693;SDS011;19084;44.716;10.218;2022-12-07T01:42:01;40.83;;;28.13;;
32693;SDS011;19084;44.716;10.218;2022-12-07T01:45:14;48.58;;;28.85;;
32693;SDS011;19084;44.716;10.218;2022-12-07T01:47:42;45.20;;;28.38;;
32693;SDS011;19084;44.716;10.218;2022-12-07T01:50:19;44.03;;;28.35;;
32693;SDS011;19084;44.716;10.218;2022-12-07T01:52:52;45.03;;;29.70;;
32693;SDS011;19084;44.716;10.218;2022-12-07T01:55:28;40.35;;;28.05;;
32693;SDS011;19084;44.716;10.218;2022-12-07T01:58:01;43.63;;;29.23;;
32693;SDS011;19084;44.716;10.218;2022-12-07T02:00:34;39.00;;;26.50;;
32693;SDS011;19084;44.716;10.218;2022-12-07T02:03:09;42.75;;;26.90;;
32693;SDS011;19084;44.716;10.218;2022-12-07T02:05:44;41.63;;;27.58;;
32693;SDS011;19084;44.716;10.218;2022-12-07T02:08:19;43.83;;;28.58;;
32693;SDS011;19084;44.716;10.218;2022-12-07T02:10:52;41.92;;;28.35;;
32693;SDS011;19084;44.716;10.218;2022-12-07T02:13:30;43.92;;;28.85;;
32693;SDS011;19084;44.716;10.218;2022-12-07T02:19:20;39.15;;;26.10;;
32693;SDS011;19084;44.716;10.218;2022-12-07T02:43:24;38.17;;;25.38;;
32693;SDS011;19084;44.716;10.218;2022-12-07T02:46:08;37.15;;;24.98;;
32693;SDS011;19084;44.716;10.218;2022-12-07T02:48:46;37.40;;;25.35;;
32693;SDS011;19084;44.716;10.218;2022-12-07T02:51:22;41.00;;;25.83;;
32693;SDS011;19084;44.716;10.218;2022-12-07T02:53:54;38.00;;;25.10;;
32693;SDS011;19084;44.716;10.218;2022-12-07T02:56:30;40.20;;;26.08;;
32693;SDS011;19084;44.716;10.218;2022-12-07T03:19:01;41.90;;;26.58;;
32693;SDS011;19084;44.716;10.218;2022-12-07T03:21:37;37.28;;;25.30;;
32693;SDS011;19084;44.716;10.218;2022-12-07T03:24:16;40.83;;;26.70;;
32693;SDS011;19084;44.716;10.218;2022-12-07T03:26:52;40.30;;;25.52;;
32693;SDS011;19084;44.716;10.218;2022-12-07T03:29:38;40.88;;;26.00;;
32693;SDS011;19084;44.716;10.218;2022-12-07T03:32:19;47.63;;;26.85;;
32693;SDS011;19084;44.716;10.218;2022-12-07T03:37:42;39.88;;;26.02;;
32693;SDS011;19084;44.716;10.218;2022-12-07T03:40:25;42.95;;;27.38;;
32693;SDS011;19084;44.716;10.218;2022-12-07T03:43:14;41.17;;;27.15;;
32693;SDS011;19084;44.716;10.218;2022-12-07T03:45:55;42.58;;;27.08;;
32693;SDS011;19084;44.716;10.218;2022-12-07T03:48:41;40.28;;;26.77;;
32693;SDS011;19084;44.716;10.218;2022-12-07T03:54:21;39.80;;;27.20;;
32693;SDS011;19084;44.716;10.218;2022-12-07T03:57:01;44.67;;;27.90;;
32693;SDS011;19084;44.716;10.218;2022-12-07T03:59:34;40.20;;;27.08;;
32693;SDS011;19084;44.716;10.218;2022-12-07T04:02:10;38.65;;;26.50;;
32693;SDS011;19084;44.716;10.218;2022-12-07T04:04:44;37.50;;;24.95;;
32693;SDS011;19084;44.716;10.218;2022-12-07T04:07:17;37.13;;;25.08;;
32693;SDS011;19084;44.716;10.218;2022-12-07T04:09:50;38.03;;;26.10;;
32693;SDS011;19084;44.716;10.218;2022-12-07T04:12:23;40.80;;;26.50;;
32693;SDS011;19084;44.716;10.218;2022-12-07T04:14:56;40.38;;;26.35;;
32693;SDS011;19084;44.716;10.218;2022-12-07T04:17:29;37.92;;;25.92;;
32693;SDS011;19084;44.716;10.218;2022-12-07T04:20:02;42.15;;;25.73;;
32693;SDS011;19084;44.716;10.218;2022-12-07T04:22:36;31.57;;;19.67;;
32693;SDS011;19084;44.716;10.218;2022-12-07T04:25:09;41.83;;;26.23;;
32693;SDS011;19084;44.716;10.218;2022-12-07T04:27:41;40.35;;;25.35;;
32693;SDS011;19084;44.716;10.218;2022-12-07T04:30:14;38.40;;;25.02;;
32693;SDS011;19084;44.716;10.218;2022-12-07T04:32:47;38.45;;;26.17;;
32693;SDS011;19084;44.716;10.218;2022-12-07T04:35:20;41.60;;;26.23;;
32693;SDS011;19084;44.716;10.218;2022-12-07T04:37:52;35.85;;;23.98;;
32693;SDS011;19084;44.716;10.218;2022-12-07T04:40:25;40.20;;;25.80;;
32693;SDS011;19084;44.716;10.218;2022-12-07T04:42:58;38.70;;;25.33;;
32693;SDS011;19084;44.716;10.218;2022-12-07T04:45:31;42.97;;;27.17;;
32693;SDS011;19084;44.716;10.218;2022-12-07T04:48:04;39.38;;;25.67;;
32693;SDS011;19084;44.716;10.218;2022-12-07T04:50:37;40.80;;;25.67;;
32693;SDS011;19084;44.716;10.218;2022-12-07T04:53:16;38.47;;;26.13;;
32693;SDS011;19084;44.716;10.218;2022-12-07T04:55:49;40.55;;;24.92;;
32693;SDS011;19084;44.716;10.218;2022-12-07T04:58:22;39.58;;;25.92;;
32693;SDS011;19084;44.716;10.218;2022-12-07T05:00:55;39.13;;;25.17;;
32693;SDS011;19084;44.716;10.218;2022-12-07T05:03:28;71.78;;;48.15;;
32693;SDS011;19084;44.716;10.218;2022-12-07T05:06:00;55.05;;;35.85;;
32693;SDS011;19084;44.716;10.218;2022-12-07T05:08:33;38.20;;;26.48;;
32693;SDS011;19084;44.716;10.218;2022-12-07T05:11:07;69.10;;;44.88;;
32693;SDS011;19084;44.716;10.218;2022-12-07T05:13:41;57.63;;;38.85;;
32693;SDS011;19084;44.716;10.218;2022-12-07T05:16:13;44.55;;;30.35;;
32693;SDS011;19084;44.716;10.218;2022-12-07T05:18:46;41.40;;;28.55;;
32693;SDS011;19084;44.716;10.218;2022-12-07T05:21:19;71.60;;;54.00;;
32693;SDS011;19084;44.716;10.218;2022-12-07T05:23:52;48.58;;;33.10;;
32693;SDS011;19084;44.716;10.218;2022-12-07T05:26:25;45.45;;;31.35;;
32693;SDS011;19084;44.716;10.218;2022-12-07T05:28:58;39.15;;;25.73;;
32693;SDS011;19084;44.716;10.218;2022-12-07T05:31:31;39.83;;;25.77;;
32693;SDS011;19084;44.716;10.218;2022-12-07T05:34:04;40.05;;;25.60;;
32693;SDS011;19084;44.716;10.218;2022-12-07T05:36:37;39.10;;;25.52;;
32693;SDS011;19084;44.716;10.218;2022-12-07T05:39:10;38.45;;;25.58;;
32693;SDS011;19084;44.716;10.218;2022-12-07T05:41:42;37.65;;;24.95;;
32693;SDS011;19084;44.716;10.218;2022-12-07T05:44:30;40.63;;;26.55;;
32693;SDS011;19084;44.716;10.218;2022-12-07T05:47:03;41.15;;;25.75;;
32693;SDS011;19084;44.716;10.218;2022-12-07T05:49:36;39.13;;;25.67;;
32693;SDS011;19084;44.716;10.218;2022-12-07T05:52:09;41.33;;;26.30;;
32693;SDS011;19084;44.716;10.218;2022-12-07T05:54:41;38.72;;;25.98;;
32693;SDS011;19084;44.716;10.218;2022-12-07T05:57:14;40.45;;;25.23;;
32693;SDS011;19084;44.716;10.218;2022-12-07T05:59:47;42.63;;;26.10;;
32693;SDS011;19084;44.716;10.218;2022-12-07T06:02:20;40.47;;;25.95;;
32693;SDS011;19084;44.716;10.218;2022-12-07T06:04:53;44.03;;;27.85;;
32693;SDS011;19084;44.716;10.218;2022-12-07T06:07:26;45.38;;;28.95;;
32693;SDS011;19084;44.716;10.218;2022-12-07T06:09:59;48.15;;;30.77;;
32693;SDS011;19084;44.716;10.218;2022-12-07T06:12:32;49.42;;;31.38;;
32693;SDS011;19084;44.716;10.218;2022-12-07T06:15:06;48.28;;;31.50;;
32693;SDS011;19084;44.716;10.218;2022-12-07T06:17:39;46.40;;;29.58;;
32693;SDS011;19084;44.716;10.218;2022-12-07T06:20:12;50.55;;;31.60;;
32693;SDS011;19084;44.716;10.218;2022-12-07T06:22:45;50.30;;;32.50;;
32693;SDS011;19084;44.716;10.218;2022-12-07T06:25:18;49.78;;;33.67;;
32693;SDS011;19084;44.716;10.218;2022-12-07T06:27:52;55.25;;;34.85;;
32693;SDS011;19084;44.716;10.218;2022-12-07T06:30:27;53.78;;;34.70;;
32693;SDS011;19084;44.716;10.218;2022-12-07T06:32:59;48.97;;;33.42;;
32693;SDS011;19084;44.716;10.218;2022-12-07T06:35:33;55.10;;;34.67;;
32693;SDS011;19084;44.716;10.218;2022-12-07T06:38:06;53.40;;;34.65;;
32693;SDS011;19084;44.716;10.218;2022-12-07T06:40:40;52.70;;;34.45;;
32693;SDS011;19084;44.716;10.218;2022-12-07T06:43:13;56.42;;;34.78;;
32693;SDS011;19084;44.716;10.218;2022-12-07T06:45:45;57.20;;;37.45;;
32693;SDS011;19084;44.716;10.218;2022-12-07T06:48:18;60.72;;;38.75;;
32693;SDS011;19084;44.716;10.218;2022-12-07T06:50:51;55.45;;;36.90;;
32693;SDS011;19084;44.716;10.218;2022-12-07T06:53:26;58.13;;;37.22;;
32693;SDS011;19084;44.716;10.218;2022-12-07T06:55:58;59.03;;;39.67;;
32693;SDS011;19084;44.716;10.218;2022-12-07T06:58:31;60.72;;;37.20;;
32693;SDS011;19084;44.716;10.218;2022-12-07T07:01:08;64.10;;;40.38;;
32693;SDS011;19084;44.716;10.218;2022-12-07T07:03:44;62.00;;;38.53;;
32693;SDS011;19084;44.716;10.218;2022-12-07T07:06:17;63.35;;;40.33;;
32693;SDS011;19084;44.716;10.218;2022-12-07T07:08:50;62.65;;;40.88;;
32693;SDS011;19084;44.716;10.218;2022-12-07T07:11:23;68.35;;;43.35;;
32693;SDS011;19084;44.716;10.218;2022-12-07T07:13:56;61.20;;;39.88;;
32693;SDS011;19084;44.716;10.218;2022-12-07T07:16:31;64.45;;;42.88;;
32693;SDS011;19084;44.716;10.218;2022-12-07T07:19:04;71.35;;;44.17;;
32693;SDS011;19084;44.716;10.218;2022-12-07T07:21:36;66.82;;;41.97;;
32693;SDS011;19084;44.716;10.218;2022-12-07T07:24:09;61.83;;;38.17;;
32693;SDS011;19084;44.716;10.218;2022-12-07T07:26:42;61.35;;;37.65;;
32693;SDS011;19084;44.716;10.218;2022-12-07T07:29:15;56.95;;;36.03;;
32693;SDS011;19084;44.716;10.218;2022-12-07T07:31:48;60.15;;;39.17;;
32693;SDS011;19084;44.716;10.218;2022-12-07T07:34:20;72.05;;;41.55;;
32693;SDS011;19084;44.716;10.218;2022-12-07T07:36:53;59.45;;;36.80;;
32693;SDS011;19084;44.716;10.218;2022-12-07T07:39:26;59.90;;;37.20;;
32693;SDS011;19084;44.716;10.218;2022-12-07T07:41:59;55.28;;;36.00;;
32693;SDS011;19084;44.716;10.218;2022-12-07T07:44:32;53.22;;;33.92;;
32693;SDS011;19084;44.716;10.218;2022-12-07T07:47:06;52.10;;;33.30;;
32693;SDS011;19084;44.716;10.218;2022-12-07T07:49:39;47.13;;;30.30;;
32693;SDS011;19084;44.716;10.218;2022-12-07T07:52:19;46.83;;;30.35;;
32693;SDS011;19084;44.716;10.218;2022-12-07T07:54:51;44.10;;;28.13;;
32693;SDS011;19084;44.716;10.218;2022-12-07T07:57:24;44.28;;;27.40;;
32693;SDS011;19084;44.716;10.218;2022-12-07T07:59:57;38.08;;;23.83;;
32693;SDS011;19084;44.716;10.218;2022-12-07T08:02:30;39.58;;;23.95;;
32693;SDS011;19084;44.716;10.218;2022-12-07T08:05:03;45.17;;;22.88;;
32693;SDS011;19084;44.716;10.218;2022-12-07T08:07:36;33.83;;;22.75;;
32693;SDS011;19084;44.716;10.218;2022-12-07T08:10:09;35.67;;;23.77;;
32693;SDS011;19084;44.716;10.218;2022-12-07T08:12:44;42.80;;;22.45;;
32693;SDS011;19084;44.716;10.218;2022-12-07T08:15:32;40.00;;;23.95;;
32693;SDS011;19084;44.716;10.218;2022-12-07T08:18:05;41.38;;;23.73;;
32693;SDS011;19084;44.716;10.218;2022-12-07T08:20:38;33.25;;;22.80;;
32693;SDS011;19084;44.716;10.218;2022-12-07T08:23:12;35.83;;;24.70;;
32693;SDS011;19084;44.716;10.218;2022-12-07T08:25:44;34.08;;;22.67;;
32693;SDS011;19084;44.716;10.218;2022-12-07T08:28:17;32.25;;;21.67;;
32693;SDS011;19084;44.716;10.218;2022-12-07T08:33:46;26.83;;;18.42;;
32693;SDS011;19084;44.716;10.218;2022-12-07T08:36:19;29.38;;;19.00;;
32693;SDS011;19084;44.716;10.218;2022-12-07T08:38:53;28.40;;;19.57;;
32693;SDS011;19084;44.716;10.218;2022-12-07T08:41:46;30.42;;;19.70;;
32693;SDS011;19084;44.716;10.218;2022-12-07T08:44:19;30.00;;;20.65;;
32693;SDS011;19084;44.716;10.218;2022-12-07T08:46:53;41.65;;;26.17;;
32693;SDS011;19084;44.716;10.218;2022-12-07T08:49:31;43.17;;;29.15;;
32693;SDS011;19084;44.716;10.218;2022-12-07T08:52:09;46.45;;;30.30;;
32693;SDS011;19084;44.716;10.218;2022-12-07T08:54:41;45.75;;;29.77;;
32693;SDS011;19084;44.716;10.218;2022-12-07T08:57:15;49.97;;;32.50;;
32693;SDS011;19084;44.716;10.218;2022-12-07T08:59:47;51.13;;;32.75;;
32693;SDS011;19084;44.716;10.218;2022-12-07T09:02:20;51.15;;;33.85;;
32693;SDS011;19084;44.716;10.218;2022-12-07T09:04:53;55.40;;;34.85;;
32693;SDS011;19084;44.716;10.218;2022-12-07T09:07:25;51.83;;;34.38;;
32693;SDS011;19084;44.716;10.218;2022-12-07T09:09:59;54.08;;;35.28;;
32693;SDS011;19084;44.716;10.218;2022-12-07T09:12:32;58.83;;;36.97;;
32693;SDS011;19084;44.716;10.218;2022-12-07T09:15:05;53.22;;;36.00;;
32693;SDS011;19084;44.716;10.218;2022-12-07T09:17:40;51.42;;;34.17;;
32693;SDS011;19084;44.716;10.218;2022-12-07T09:20:12;52.22;;;34.85;;
32693;SDS011;19084;44.716;10.218;2022-12-07T09:22:45;52.35;;;35.67;;
32693;SDS011;19084;44.716;10.218;2022-12-07T09:25:18;52.78;;;35.50;;
32693;SDS011;19084;44.716;10.218;2022-12-07T09:27:55;50.25;;;33.30;;
32693;SDS011;19084;44.716;10.218;2022-12-07T09:30:29;50.97;;;36.05;;
32693;SDS011;19084;44.716;10.218;2022-12-07T09:33:02;51.13;;;34.13;;
32693;SDS011;19084;44.716;10.218;2022-12-07T09:35:35;55.25;;;36.53;;
32693;SDS011;19084;44.716;10.218;2022-12-07T09:38:09;55.78;;;36.67;;
32693;SDS011;19084;44.716;10.218;2022-12-07T09:40:42;58.67;;;39.55;;
32693;SDS011;19084;44.716;10.218;2022-12-07T09:43:20;54.15;;;37.13;;
32693;SDS011;19084;44.716;10.218;2022-12-07T09:45:55;56.65;;;39.15;;
32693;SDS011;19084;44.716;10.218;2022-12-07T09:51:03;54.88;;;37.42;;
32693;SDS011;19084;44.716;10.218;2022-12-07T09:53:55;57.08;;;37.00;;
32693;SDS011;19084;44.716;10.218;2022-12-07T09:56:29;56.17;;;38.20;;
32693;SDS011;19084;44.716;10.218;2022-12-07T09:59:04;53.50;;;37.58;;
32693;SDS011;19084;44.716;10.218;2022-12-07T10:01:38;56.55;;;39.42;;
32693;SDS011;19084;44.716;10.218;2022-12-07T10:06:51;56.63;;;37.72;;
32693;SDS011;19084;44.716;10.218;2022-12-07T10:09:24;58.17;;;39.22;;
32693;SDS011;19084;44.716;10.218;2022-12-07T10:12:00;56.25;;;38.58;;
32693;SDS011;19084;44.716;10.218;2022-12-07T10:14:37;56.33;;;37.70;;
32693;SDS011;19084;44.716;10.218;2022-12-07T10:17:36;53.90;;;37.58;;
32693;SDS011;19084;44.716;10.218;2022-12-07T10:25:33;56.58;;;38.47;;
32693;SDS011;19084;44.716;10.218;2022-12-07T10:36:15;52.20;;;37.50;;
32693;SDS011;19084;44.716;10.218;2022-12-07T10:41:55;57.92;;;37.55;;
32693;SDS011;19084;44.716;10.218;2022-12-07T10:44:32;58.40;;;37.08;;
32693;SDS011;19084;44.716;10.218;2022-12-07T10:50:02;51.17;;;35.15;;
32693;SDS011;19084;44.716;10.218;2022-12-07T11:01:23;50.75;;;34.13;;
32693;SDS011;19084;44.716;10.218;2022-12-07T11:06:39;47.10;;;33.17;;
32693;SDS011;19084;44.716;10.218;2022-12-07T11:12:38;44.05;;;31.45;;
32693;SDS011;19084;44.716;10.218;2022-12-07T11:18:39;45.63;;;31.45;;
32693;SDS011;19084;44.716;10.218;2022-12-07T11:24:01;49.72;;;34.20;;
32693;SDS011;19084;44.716;10.218;2022-12-07T11:29:53;42.50;;;31.17;;
32693;SDS011;19084;44.716;10.218;2022-12-07T11:38:23;44.25;;;26.92;;
32693;SDS011;19084;44.716;10.218;2022-12-07T11:41:06;34.70;;;26.02;;
32693;SDS011;19084;44.716;10.218;2022-12-07T11:43:52;35.88;;;25.65;;
32693;SDS011;19084;44.716;10.218;2022-12-07T11:46:46;35.85;;;25.05;;
32693;SDS011;19084;44.716;10.218;2022-12-07T11:49:40;33.97;;;24.73;;
32693;SDS011;19084;44.716;10.218;2022-12-07T11:52:27;37.50;;;26.48;;
32693;SDS011;19084;44.716;10.218;2022-12-07T11:55:19;34.03;;;25.45;;
32693;SDS011;19084;44.716;10.218;2022-12-07T12:06:43;33.45;;;25.25;;
32693;SDS011;19084;44.716;10.218;2022-12-07T12:09:18;30.80;;;21.40;;
32693;SDS011;19084;44.716;10.218;2022-12-07T12:21:29;37.08;;;26.42;;
32693;SDS011;19084;44.716;10.218;2022-12-07T12:24:05;35.92;;;26.05;;
32693;SDS011;19084;44.716;10.218;2022-12-07T12:26:49;37.50;;;27.73;;
32693;SDS011;19084;44.716;10.218;2022-12-07T12:29:31;42.38;;;29.88;;
32693;SDS011;19084;44.716;10.218;2022-12-07T12:42:53;48.17;;;32.72;;
32693;SDS011;19084;44.716;10.218;2022-12-07T12:45:28;49.60;;;33.80;;
32693;SDS011;19084;44.716;10.218;2022-12-07T12:48:09;49.28;;;34.55;;
32693;SDS011;19084;44.716;10.218;2022-12-07T12:54:04;49.13;;;34.38;;
32693;SDS011;19084;44.716;10.218;2022-12-07T12:59:42;55.22;;;36.00;;
32693;SDS011;19084;44.716;10.218;2022-12-07T13:05:25;52.58;;;35.45;;
32693;SDS011;19084;44.716;10.218;2022-12-07T13:08:02;54.60;;;36.88;;
32693;SDS011;19084;44.716;10.218;2022-12-07T13:10:47;51.17;;;35.15;;
32693;SDS011;19084;44.716;10.218;2022-12-07T13:18:44;50.20;;;35.85;;
32693;SDS011;19084;44.716;10.218;2022-12-07T13:23:54;52.92;;;36.45;;
32693;SDS011;19084;44.716;10.218;2022-12-07T13:31:55;47.63;;;32.42;;
32693;SDS011;19084;44.716;10.218;2022-12-07T13:34:32;47.75;;;33.60;;
32693;SDS011;19084;44.716;10.218;2022-12-07T13:39:57;48.33;;;33.25;;
32693;SDS011;19084;44.716;10.218;2022-12-07T13:42:34;51.63;;;35.38;;
32693;SDS011;19084;44.716;10.218;2022-12-07T13:51:14;49.50;;;34.20;;
32693;SDS011;19084;44.716;10.218;2022-12-07T13:53:53;50.00;;;34.60;;
32693;SDS011;19084;44.716;10.218;2022-12-07T13:56:32;49.72;;;35.35;;
32693;SDS011;19084;44.716;10.218;2022-12-07T13:59:16;52.00;;;36.88;;
32693;SDS011;19084;44.716;10.218;2022-12-07T14:01:53;54.60;;;36.35;;
32693;SDS011;19084;44.716;10.218;2022-12-07T14:10:00;51.92;;;36.25;;
32693;SDS011;19084;44.716;10.218;2022-12-07T14:12:38;60.58;;;40.15;;
32693;SDS011;19084;44.716;10.218;2022-12-07T14:15:15;63.40;;;38.88;;
32693;SDS011;19084;44.716;10.218;2022-12-07T14:17:56;61.15;;;39.83;;
32693;SDS011;19084;44.716;10.218;2022-12-07T14:20:32;59.03;;;38.30;;
32693;SDS011;19084;44.716;10.218;2022-12-07T14:26:05;59.90;;;38.38;;
32693;SDS011;19084;44.716;10.218;2022-12-07T14:28:39;63.67;;;39.42;;
32693;SDS011;19084;44.716;10.218;2022-12-07T14:31:15;64.88;;;39.83;;
32693;SDS011;19084;44.716;10.218;2022-12-07T14:34:01;63.55;;;39.20;;
32693;SDS011;19084;44.716;10.218;2022-12-07T14:36:34;64.55;;;40.55;;
32693;SDS011;19084;44.716;10.218;2022-12-07T14:39:07;80.40;;;38.47;;
32693;SDS011;19084;44.716;10.218;2022-12-07T14:41:44;67.78;;;42.40;;
32693;SDS011;19084;44.716;10.218;2022-12-07T14:44:25;67.30;;;43.95;;
32693;SDS011;19084;44.716;10.218;2022-12-07T14:47:08;65.72;;;38.75;;
32693;SDS011;19084;44.716;10.218;2022-12-07T14:50:02;60.58;;;36.53;;
32693;SDS011;19084;44.716;10.218;2022-12-07T14:52:37;70.97;;;43.63;;
32693;SDS011;19084;44.716;10.218;2022-12-07T14:55:33;62.88;;;39.78;;
32693;SDS011;19084;44.716;10.218;2022-12-07T14:58:05;156.05;;;84.50;;
32693;SDS011;19084;44.716;10.218;2022-12-07T15:00:41;63.63;;;39.78;;
32693;SDS011;19084;44.716;10.218;2022-12-07T15:03:14;60.60;;;39.47;;
32693;SDS011;19084;44.716;10.218;2022-12-07T15:05:48;64.68;;;39.88;;
32693;SDS011;19084;44.716;10.218;2022-12-07T15:08:23;75.05;;;35.50;;
32693;SDS011;19084;44.716;10.218;2022-12-07T15:10:56;77.85;;;37.90;;
32693;SDS011;19084;44.716;10.218;2022-12-07T15:13:28;77.18;;;45.05;;
32693;SDS011;19084;44.716;10.218;2022-12-07T15:16:19;66.07;;;39.45;;
32693;SDS011;19084;44.716;10.218;2022-12-07T15:18:53;75.13;;;45.03;;
32693;SDS011;19084;44.716;10.218;2022-12-07T15:21:46;81.40;;;47.00;;
32693;SDS011;19084;44.716;10.218;2022-12-07T15:24:19;167.07;;;88.30;;
32693;SDS011;19084;44.716;10.218;2022-12-07T15:26:54;86.95;;;43.97;;
32693;SDS011;19084;44.716;10.218;2022-12-07T15:29:27;67.20;;;39.92;;
32693;SDS011;19084;44.716;10.218;2022-12-07T15:32:00;213.63;;;43.30;;
32693;SDS011;19084;44.716;10.218;2022-12-07T15:34:33;147.45;;;80.95;;
32693;SDS011;19084;44.716;10.218;2022-12-07T15:37:12;87.63;;;42.33;;
32693;SDS011;19084;44.716;10.218;2022-12-07T15:39:45;131.25;;;40.40;;
32693;SDS011;19084;44.716;10.218;2022-12-07T15:42:18;74.22;;;38.72;;
32693;SDS011;19084;44.716;10.218;2022-12-07T15:44:50;186.00;;;39.10;;
32693;SDS011;19084;44.716;10.218;2022-12-07T15:47:40;155.70;;;37.70;;
32693;SDS011;19084;44.716;10.218;2022-12-07T15:50:34;181.48;;;39.17;;
32693;SDS011;19084;44.716;10.218;2022-12-07T15:53:09;351.42;;;43.83;;
32693;SDS011;19084;44.716;10.218;2022-12-07T15:55:41;209.45;;;41.80;;
32693;SDS011;19084;44.716;10.218;2022-12-07T15:58:14;338.35;;;44.88;;
32693;SDS011;19084;44.716;10.218;2022-12-07T16:00:47;277.08;;;42.08;;
32693;SDS011;19084;44.716;10.218;2022-12-07T16:03:20;507.58;;;47.90;;
32693;SDS011;19084;44.716;10.218;2022-12-07T16:05:53;384.13;;;49.50;;
32693;SDS011;19084;44.716;10.218;2022-12-07T16:08:26;309.75;;;40.50;;
32693;SDS011;19084;44.716;10.218;2022-12-07T16:11:07;474.20;;;49.53;;
32693;SDS011;19084;44.716;10.218;2022-12-07T16:13:40;174.63;;;35.08;;
32693;SDS011;19084;44.716;10.218;2022-12-07T16:16:13;324.50;;;42.40;;
32693;SDS011;19084;44.716;10.218;2022-12-07T16:18:48;531.65;;;48.50;;
32693;SDS011;19084;44.716;10.218;2022-12-07T16:21:22;345.13;;;41.10;;
32693;SDS011;19084;44.716;10.218;2022-12-07T16:23:58;126.13;;;27.00;;
32693;SDS011;19084;44.716;10.218;2022-12-07T16:26:31;267.85;;;43.97;;
32693;SDS011;19084;44.716;10.218;2022-12-07T16:29:04;314.38;;;44.83;;
32693;SDS011;19084;44.716;10.218;2022-12-07T16:31:37;211.80;;;39.33;;
32693;SDS011;19084;44.716;10.218;2022-12-07T16:34:10;207.82;;;39.15;;
32693;SDS011;19084;44.716;10.218;2022-12-07T16:36:43;217.77;;;40.13;;
32693;SDS011;19084;44.716;10.218;2022-12-07T16:39:36;144.55;;;38.95;;
32693;SDS011;19084;44.716;10.218;2022-12-07T16:42:08;435.67;;;48.15;;
32693;SDS011;19084;44.716;10.218;2022-12-07T16:44:41;364.42;;;48.90;;
32693;SDS011;19084;44.716;10.218;2022-12-07T16:47:14;258.70;;;46.92;;
32693;SDS011;19084;44.716;10.218;2022-12-07T16:49:47;249.07;;;39.05;;
32693;SDS011;19084;44.716;10.218;2022-12-07T16:52:20;187.20;;;40.72;;
32693;SDS011;19084;44.716;10.218;2022-12-07T16:54:53;260.13;;;40.33;;
32693;SDS011;19084;44.716;10.218;2022-12-07T16:57:26;173.50;;;60.40;;
32693;SDS011;19084;44.716;10.218;2022-12-07T16:59:59;180.52;;;36.33;;
32693;SDS011;19084;44.716;10.218;2022-12-07T17:02:31;190.98;;;36.67;;
32693;SDS011;19084;44.716;10.218;2022-12-07T17:05:04;129.65;;;33.63;;
32693;SDS011;19084;44.716;10.218;2022-12-07T17:07:37;190.65;;;34.70;;
32693;SDS011;19084;44.716;10.218;2022-12-07T17:10:10;306.42;;;43.25;;
32693;SDS011;19084;44.716;10.218;2022-12-07T17:12:43;211.20;;;37.88;;
32693;SDS011;19084;44.716;10.218;2022-12-07T17:15:16;297.85;;;91.28;;
32693;SDS011;19084;44.716;10.218;2022-12-07T17:17:51;244.75;;;38.28;;
32693;SDS011;19084;44.716;10.218;2022-12-07T17:20:26;220.40;;;37.17;;
32693;SDS011;19084;44.716;10.218;2022-12-07T17:22:59;161.18;;;32.50;;
32693;SDS011;19084;44.716;10.218;2022-12-07T17:25:32;201.63;;;33.70;;
32693;SDS011;19084;44.716;10.218;2022-12-07T17:28:05;345.33;;;40.15;;
32693;SDS011;19084;44.716;10.218;2022-12-07T17:30:39;178.90;;;47.40;;
32693;SDS011;19084;44.716;10.218;2022-12-07T17:33:13;380.10;;;221.98;;
32693;SDS011;19084;44.716;10.218;2022-12-07T17:35:47;177.63;;;56.90;;
32693;SDS011;19084;44.716;10.218;2022-12-07T17:38:20;125.68;;;54.95;;
32693;SDS011;19084;44.716;10.218;2022-12-07T17:40:53;197.05;;;31.92;;
32693;SDS011;19084;44.716;10.218;2022-12-07T17:43:26;118.13;;;27.20;;
32693;SDS011;19084;44.716;10.218;2022-12-07T17:46:04;99.07;;;29.70;;
32693;SDS011;19084;44.716;10.218;2022-12-07T17:48:39;129.68;;;30.25;;
32693;SDS011;19084;44.716;10.218;2022-12-07T17:51:12;155.13;;;49.13;;
32693;SDS011;19084;44.716;10.218;2022-12-07T17:54:00;126.95;;;32.75;;
32693;SDS011;19084;44.716;10.218;2022-12-07T17:56:33;118.68;;;31.35;;
32693;SDS011;19084;44.716;10.218;2022-12-07T18:01:42;252.75;;;67.15;;